sensor_id;sensor_type;location;lat;lon;timestamp;P1;durP1;ratioP1;P2;durP2;ratioP2
62543;SDS011;48597;49.030;1.822;2024-02-15T00:00:17;2.35;;;1.10;;
62543;SDS011;48597;49.030;1.822;2024-02-15T00:02:43;1.08;;;0.80;;
62543;SDS011;48597;49.030;1.822;2024-02-15T00:05:12;1.05;;;0.90;;
62543;SDS011;48597;49.030;1.822;2024-02-15T00:07:39;1.48;;;0.80;;
62543;SDS011;48597;49.030;1.822;2024-02-15T00:10:05;1.65;;;0.90;;
62543;SDS011;48597;49.030;1.822;2024-02-15T00:12:31;0.90;;;0.80;;
62543;SDS011;48597;49.030;1.822;2024-02-15T00:14:57;2.42;;;0.90;;
62543;SDS011;48597;49.030;1.822;2024-02-15T00:17:23;1.73;;;0.80;;
62543;SDS011;48597;49.030;1.822;2024-02-15T00:19:54;0.77;;;0.70;;
62543;SDS011;48597;49.030;1.822;2024-02-15T00:22:20;1.40;;;0.90;;
62543;SDS011;48597;49.030;1.822;2024-02-15T00:24:46;0.85;;;0.80;;
62543;SDS011;48597;49.030;1.822;2024-02-15T00:27:13;1.05;;;0.88;;
62543;SDS011;48597;49.030;1.822;2024-02-15T00:29:42;0.93;;;0.80;;
62543;SDS011;48597;49.030;1.822;2024-02-15T00:32:08;1.73;;;0.90;;
62543;SDS011;48597;49.030;1.822;2024-02-15T00:34:35;1.50;;;0.95;;
62543;SDS011;48597;49.030;1.822;2024-02-15T00:37:03;0.95;;;0.80;;
62543;SDS011;48597;49.030;1.822;2024-02-15T00:39:29;0.80;;;0.75;;
62543;SDS011;48597;49.030;1.822;2024-02-15T00:41:56;0.95;;;0.80;;
62543;SDS011;48597;49.030;1.822;2024-02-15T00:44:21;1.23;;;0.80;;
62543;SDS011;48597;49.030;1.822;2024-02-15T00:46:47;1.15;;;0.80;;
62543;SDS011;48597;49.030;1.822;2024-02-15T00:49:13;0.82;;;0.80;;
62543;SDS011;48597;49.030;1.822;2024-02-15T00:51:38;1.15;;;0.70;;
62543;SDS011;48597;49.030;1.822;2024-02-15T00:54:03;1.45;;;0.90;;
62543;SDS011;48597;49.030;1.822;2024-02-15T00:56:29;0.70;;;0.70;;
62543;SDS011;48597;49.030;1.822;2024-02-15T00:58:56;0.82;;;0.82;;
62543;SDS011;48597;49.030;1.822;2024-02-15T01:01:21;1.67;;;0.93;;
62543;SDS011;48597;49.030;1.822;2024-02-15T01:03:47;1.88;;;1.00;;
62543;SDS011;48597;49.030;1.822;2024-02-15T01:06:12;0.80;;;0.80;;
62543;SDS011;48597;49.030;1.822;2024-02-15T01:08:37;1.27;;;1.00;;
62543;SDS011;48597;49.030;1.822;2024-02-15T01:11:03;0.80;;;0.80;;
62543;SDS011;48597;49.030;1.822;2024-02-15T01:13:29;0.75;;;0.73;;
62543;SDS011;48597;49.030;1.822;2024-02-15T01:15:54;1.70;;;0.95;;
62543;SDS011;48597;49.030;1.822;2024-02-15T01:18:20;1.63;;;0.90;;
62543;SDS011;48597;49.030;1.822;2024-02-15T01:20:46;1.13;;;0.80;;
62543;SDS011;48597;49.030;1.822;2024-02-15T01:23:11;1.48;;;0.88;;
62543;SDS011;48597;49.030;1.822;2024-02-15T01:25:37;1.27;;;1.00;;
62543;SDS011;48597;49.030;1.822;2024-02-15T01:28:02;2.03;;;0.90;;
62543;SDS011;48597;49.030;1.822;2024-02-15T01:30:28;1.17;;;0.93;;
62543;SDS011;48597;49.030;1.822;2024-02-15T01:32:54;1.00;;;0.80;;
62543;SDS011;48597;49.030;1.822;2024-02-15T01:35:20;0.85;;;0.82;;
62543;SDS011;48597;49.030;1.822;2024-02-15T01:37:45;1.30;;;0.85;;
62543;SDS011;48597;49.030;1.822;2024-02-15T01:40:11;1.08;;;0.85;;
62543;SDS011;48597;49.030;1.822;2024-02-15T01:42:38;1.90;;;0.90;;
62543;SDS011;48597;49.030;1.822;2024-02-15T01:45:04;0.70;;;0.70;;
62543;SDS011;48597;49.030;1.822;2024-02-15T01:47:30;0.82;;;0.73;;
62543;SDS011;48597;49.030;1.822;2024-02-15T01:49:55;0.90;;;0.80;;
62543;SDS011;48597;49.030;1.822;2024-02-15T01:52:23;1.27;;;1.10;;
62543;SDS011;48597;49.030;1.822;2024-02-15T01:54:50;1.05;;;0.90;;
62543;SDS011;48597;49.030;1.822;2024-02-15T01:57:17;0.90;;;0.80;;
62543;SDS011;48597;49.030;1.822;2024-02-15T01:59:46;1.48;;;0.77;;
62543;SDS011;48597;49.030;1.822;2024-02-15T02:02:11;1.27;;;1.02;;
62543;SDS011;48597;49.030;1.822;2024-02-15T02:04:39;0.82;;;0.80;;
62543;SDS011;48597;49.030;1.822;2024-02-15T02:07:06;0.90;;;0.90;;
62543;SDS011;48597;49.030;1.822;2024-02-15T02:09:31;0.82;;;0.80;;
62543;SDS011;48597;49.030;1.822;2024-02-15T02:11:56;1.17;;;0.90;;
62543;SDS011;48597;49.030;1.822;2024-02-15T02:14:22;1.15;;;0.90;;
62543;SDS011;48597;49.030;1.822;2024-02-15T02:16:49;1.52;;;0.95;;
62543;SDS011;48597;49.030;1.822;2024-02-15T02:19:14;1.30;;;0.85;;
62543;SDS011;48597;49.030;1.822;2024-02-15T02:21:42;1.20;;;0.90;;
62543;SDS011;48597;49.030;1.822;2024-02-15T02:24:14;1.27;;;1.02;;
62543;SDS011;48597;49.030;1.822;2024-02-15T02:26:47;1.13;;;0.93;;
62543;SDS011;48597;49.030;1.822;2024-02-15T02:29:15;0.90;;;0.82;;
62543;SDS011;48597;49.030;1.822;2024-02-15T02:31:41;1.27;;;1.00;;
62543;SDS011;48597;49.030;1.822;2024-02-15T02:34:07;0.70;;;0.70;;
62543;SDS011;48597;49.030;1.822;2024-02-15T02:36:33;1.30;;;0.93;;
62543;SDS011;48597;49.030;1.822;2024-02-15T02:38:59;1.08;;;0.98;;
62543;SDS011;48597;49.030;1.822;2024-02-15T02:41:26;1.20;;;0.82;;
62543;SDS011;48597;49.030;1.822;2024-02-15T02:43:53;1.00;;;0.80;;
62543;SDS011;48597;49.030;1.822;2024-02-15T02:46:19;0.90;;;0.90;;
62543;SDS011;48597;49.030;1.822;2024-02-15T02:48:45;0.90;;;0.90;;
62543;SDS011;48597;49.030;1.822;2024-02-15T02:51:10;1.40;;;1.05;;
62543;SDS011;48597;49.030;1.822;2024-02-15T02:53:36;1.27;;;0.90;;
62543;SDS011;48597;49.030;1.822;2024-02-15T02:56:01;1.13;;;1.00;;
62543;SDS011;48597;49.030;1.822;2024-02-15T02:58:27;0.90;;;0.90;;
62543;SDS011;48597;49.030;1.822;2024-02-15T03:00:52;1.30;;;0.90;;
62543;SDS011;48597;49.030;1.822;2024-02-15T03:03:18;1.08;;;0.85;;
62543;SDS011;48597;49.030;1.822;2024-02-15T03:05:44;1.17;;;0.93;;
62543;SDS011;48597;49.030;1.822;2024-02-15T03:08:11;0.90;;;0.90;;
62543;SDS011;48597;49.030;1.822;2024-02-15T03:10:37;0.82;;;0.82;;
62543;SDS011;48597;49.030;1.822;2024-02-15T03:13:03;1.30;;;0.90;;
62543;SDS011;48597;49.030;1.822;2024-02-15T03:15:30;0.80;;;0.80;;
62543;SDS011;48597;49.030;1.822;2024-02-15T03:17:55;0.90;;;0.90;;
62543;SDS011;48597;49.030;1.822;2024-02-15T03:20:20;1.17;;;1.00;;
62543;SDS011;48597;49.030;1.822;2024-02-15T03:22:58;1.63;;;1.10;;
62543;SDS011;48597;49.030;1.822;2024-02-15T03:25:25;1.20;;;0.90;;
62543;SDS011;48597;49.030;1.822;2024-02-15T03:27:54;1.20;;;1.10;;
62543;SDS011;48597;49.030;1.822;2024-02-15T03:30:21;1.10;;;1.00;;
62543;SDS011;48597;49.030;1.822;2024-02-15T03:32:49;0.98;;;0.90;;
62543;SDS011;48597;49.030;1.822;2024-02-15T03:35:16;0.98;;;0.80;;
62543;SDS011;48597;49.030;1.822;2024-02-15T03:37:42;1.05;;;0.90;;
62543;SDS011;48597;49.030;1.822;2024-02-15T03:40:08;1.40;;;1.20;;
62543;SDS011;48597;49.030;1.822;2024-02-15T03:42:34;1.10;;;1.00;;
62543;SDS011;48597;49.030;1.822;2024-02-15T03:45:03;3.33;;;1.17;;
62543;SDS011;48597;49.030;1.822;2024-02-15T03:47:31;0.93;;;0.90;;
62543;SDS011;48597;49.030;1.822;2024-02-15T03:49:58;1.58;;;1.05;;
62543;SDS011;48597;49.030;1.822;2024-02-15T03:52:24;1.02;;;0.93;;
62543;SDS011;48597;49.030;1.822;2024-02-15T03:54:49;1.23;;;1.00;;
62543;SDS011;48597;49.030;1.822;2024-02-15T03:57:15;1.15;;;0.90;;
62543;SDS011;48597;49.030;1.822;2024-02-15T03:59:42;0.90;;;0.90;;
62543;SDS011;48597;49.030;1.822;2024-02-15T04:02:07;1.02;;;0.93;;
62543;SDS011;48597;49.030;1.822;2024-02-15T04:04:37;1.30;;;1.10;;
62543;SDS011;48597;49.030;1.822;2024-02-15T04:07:06;1.25;;;1.15;;
62543;SDS011;48597;49.030;1.822;2024-02-15T04:09:32;1.10;;;1.00;;
62543;SDS011;48597;49.030;1.822;2024-02-15T04:11:58;2.15;;;0.90;;
62543;SDS011;48597;49.030;1.822;2024-02-15T04:14:23;1.20;;;0.95;;
62543;SDS011;48597;49.030;1.822;2024-02-15T04:16:49;0.95;;;0.90;;
62543;SDS011;48597;49.030;1.822;2024-02-15T04:19:14;1.30;;;1.10;;
62543;SDS011;48597;49.030;1.822;2024-02-15T04:21:40;1.13;;;1.02;;
62543;SDS011;48597;49.030;1.822;2024-02-15T04:24:06;1.30;;;1.10;;
62543;SDS011;48597;49.030;1.822;2024-02-15T04:26:31;1.23;;;0.98;;
62543;SDS011;48597;49.030;1.822;2024-02-15T04:28:59;1.02;;;0.95;;
62543;SDS011;48597;49.030;1.822;2024-02-15T04:31:25;1.15;;;0.90;;
62543;SDS011;48597;49.030;1.822;2024-02-15T04:33:54;1.20;;;1.10;;
62543;SDS011;48597;49.030;1.822;2024-02-15T04:36:20;1.10;;;1.00;;
62543;SDS011;48597;49.030;1.822;2024-02-15T04:38:51;1.50;;;1.05;;
62543;SDS011;48597;49.030;1.822;2024-02-15T04:41:18;0.98;;;0.90;;
62543;SDS011;48597;49.030;1.822;2024-02-15T04:43:50;1.20;;;1.10;;
62543;SDS011;48597;49.030;1.822;2024-02-15T04:46:15;1.35;;;0.90;;
62543;SDS011;48597;49.030;1.822;2024-02-15T04:48:41;1.20;;;1.08;;
62543;SDS011;48597;49.030;1.822;2024-02-15T04:51:07;1.25;;;1.15;;
62543;SDS011;48597;49.030;1.822;2024-02-15T04:53:33;0.95;;;0.95;;
62543;SDS011;48597;49.030;1.822;2024-02-15T04:55:59;0.90;;;0.88;;
62543;SDS011;48597;49.030;1.822;2024-02-15T04:58:32;1.35;;;0.90;;
62543;SDS011;48597;49.030;1.822;2024-02-15T05:01:01;1.20;;;1.05;;
62543;SDS011;48597;49.030;1.822;2024-02-15T05:03:29;1.15;;;0.95;;
62543;SDS011;48597;49.030;1.822;2024-02-15T05:05:59;1.10;;;1.00;;
62543;SDS011;48597;49.030;1.822;2024-02-15T05:08:25;0.80;;;0.80;;
62543;SDS011;48597;49.030;1.822;2024-02-15T05:10:51;1.20;;;0.88;;
62543;SDS011;48597;49.030;1.822;2024-02-15T05:13:21;1.60;;;1.20;;
62543;SDS011;48597;49.030;1.822;2024-02-15T05:15:47;1.27;;;1.00;;
62543;SDS011;48597;49.030;1.822;2024-02-15T05:18:12;1.00;;;0.90;;
62543;SDS011;48597;49.030;1.822;2024-02-15T05:20:38;1.23;;;1.05;;
62543;SDS011;48597;49.030;1.822;2024-02-15T05:23:04;1.33;;;0.90;;
62543;SDS011;48597;49.030;1.822;2024-02-15T05:25:30;1.10;;;1.00;;
62543;SDS011;48597;49.030;1.822;2024-02-15T05:27:57;1.10;;;1.00;;
62543;SDS011;48597;49.030;1.822;2024-02-15T05:30:23;1.30;;;1.00;;
62543;SDS011;48597;49.030;1.822;2024-02-15T05:32:48;1.42;;;0.90;;
62543;SDS011;48597;49.030;1.822;2024-02-15T05:35:14;0.90;;;0.90;;
62543;SDS011;48597;49.030;1.822;2024-02-15T05:37:40;1.17;;;0.85;;
62543;SDS011;48597;49.030;1.822;2024-02-15T05:40:05;1.90;;;1.17;;
62543;SDS011;48597;49.030;1.822;2024-02-15T05:42:32;1.45;;;0.88;;
62543;SDS011;48597;49.030;1.822;2024-02-15T05:44:59;1.10;;;1.00;;
62543;SDS011;48597;49.030;1.822;2024-02-15T05:47:57;0.80;;;0.80;;
62543;SDS011;48597;49.030;1.822;2024-02-15T05:50:23;1.50;;;0.90;;
62543;SDS011;48597;49.030;1.822;2024-02-15T05:52:49;1.48;;;1.10;;
62543;SDS011;48597;49.030;1.822;2024-02-15T05:55:16;1.10;;;1.00;;
62543;SDS011;48597;49.030;1.822;2024-02-15T05:57:44;1.23;;;0.95;;
62543;SDS011;48597;49.030;1.822;2024-02-15T06:00:10;1.10;;;0.93;;
62543;SDS011;48597;49.030;1.822;2024-02-15T06:02:36;0.95;;;0.90;;
62543;SDS011;48597;49.030;1.822;2024-02-15T06:05:02;1.10;;;1.00;;
62543;SDS011;48597;49.030;1.822;2024-02-15T06:07:29;1.05;;;0.90;;
62543;SDS011;48597;49.030;1.822;2024-02-15T06:09:57;0.80;;;0.80;;
62543;SDS011;48597;49.030;1.822;2024-02-15T06:12:23;1.05;;;0.90;;
62543;SDS011;48597;49.030;1.822;2024-02-15T06:14:48;0.70;;;0.70;;
62543;SDS011;48597;49.030;1.822;2024-02-15T06:17:13;1.20;;;1.10;;
62543;SDS011;48597;49.030;1.822;2024-02-15T06:19:39;0.80;;;0.80;;
62543;SDS011;48597;49.030;1.822;2024-02-15T06:22:05;1.10;;;0.85;;
62543;SDS011;48597;49.030;1.822;2024-02-15T06:24:30;0.90;;;0.85;;
62543;SDS011;48597;49.030;1.822;2024-02-15T06:26:55;1.30;;;0.93;;
62543;SDS011;48597;49.030;1.822;2024-02-15T06:29:25;0.98;;;0.90;;
62543;SDS011;48597;49.030;1.822;2024-02-15T06:32:09;0.70;;;0.70;;
62543;SDS011;48597;49.030;1.822;2024-02-15T06:34:53;1.10;;;1.00;;
62543;SDS011;48597;49.030;1.822;2024-02-15T06:37:38;0.93;;;0.90;;
62543;SDS011;48597;49.030;1.822;2024-02-15T06:40:22;1.05;;;0.90;;
62543;SDS011;48597;49.030;1.822;2024-02-15T06:42:48;0.82;;;0.80;;
62543;SDS011;48597;49.030;1.822;2024-02-15T06:45:14;0.80;;;0.80;;
62543;SDS011;48597;49.030;1.822;2024-02-15T06:47:43;0.77;;;0.77;;
62543;SDS011;48597;49.030;1.822;2024-02-15T06:50:11;0.88;;;0.82;;
62543;SDS011;48597;49.030;1.822;2024-02-15T06:52:42;1.05;;;0.95;;
62543;SDS011;48597;49.030;1.822;2024-02-15T06:55:08;0.93;;;0.90;;
62543;SDS011;48597;49.030;1.822;2024-02-15T06:57:34;1.10;;;1.00;;
62543;SDS011;48597;49.030;1.822;2024-02-15T07:00:03;1.00;;;0.90;;
62543;SDS011;48597;49.030;1.822;2024-02-15T07:02:32;1.33;;;1.00;;
62543;SDS011;48597;49.030;1.822;2024-02-15T07:04:58;0.80;;;0.80;;
62543;SDS011;48597;49.030;1.822;2024-02-15T07:07:24;1.15;;;1.00;;
62543;SDS011;48597;49.030;1.822;2024-02-15T07:09:50;0.88;;;0.80;;
62543;SDS011;48597;49.030;1.822;2024-02-15T07:12:16;1.17;;;0.90;;
62543;SDS011;48597;49.030;1.822;2024-02-15T07:14:41;1.05;;;0.77;;
62543;SDS011;48597;49.030;1.822;2024-02-15T07:17:06;1.00;;;0.90;;
62543;SDS011;48597;49.030;1.822;2024-02-15T07:19:32;0.98;;;0.88;;
62543;SDS011;48597;49.030;1.822;2024-02-15T07:22:01;1.30;;;0.80;;
62543;SDS011;48597;49.030;1.822;2024-02-15T07:24:27;1.02;;;0.90;;
62543;SDS011;48597;49.030;1.822;2024-02-15T07:26:53;1.60;;;0.80;;
62543;SDS011;48597;49.030;1.822;2024-02-15T07:29:20;0.80;;;0.80;;
62543;SDS011;48597;49.030;1.822;2024-02-15T07:31:48;1.63;;;1.00;;
62543;SDS011;48597;49.030;1.822;2024-02-15T07:34:14;0.95;;;0.88;;
62543;SDS011;48597;49.030;1.822;2024-02-15T07:36:39;1.00;;;0.82;;
62543;SDS011;48597;49.030;1.822;2024-02-15T07:39:07;0.95;;;0.93;;
62543;SDS011;48597;49.030;1.822;2024-02-15T07:41:37;0.98;;;0.85;;
62543;SDS011;48597;49.030;1.822;2024-02-15T07:44:02;1.50;;;1.00;;
62543;SDS011;48597;49.030;1.822;2024-02-15T07:46:28;1.08;;;0.90;;
62543;SDS011;48597;49.030;1.822;2024-02-15T07:48:54;1.77;;;0.80;;
62543;SDS011;48597;49.030;1.822;2024-02-15T07:51:22;0.80;;;0.80;;
62543;SDS011;48597;49.030;1.822;2024-02-15T07:53:47;0.90;;;0.90;;
62543;SDS011;48597;49.030;1.822;2024-02-15T07:56:14;1.23;;;0.98;;
62543;SDS011;48597;49.030;1.822;2024-02-15T07:58:41;1.50;;;0.90;;
62543;SDS011;48597;49.030;1.822;2024-02-15T08:01:12;1.10;;;1.00;;
62543;SDS011;48597;49.030;1.822;2024-02-15T08:03:41;1.00;;;0.90;;
62543;SDS011;48597;49.030;1.822;2024-02-15T08:06:10;0.70;;;0.70;;
62543;SDS011;48597;49.030;1.822;2024-02-15T08:08:40;1.63;;;1.10;;
62543;SDS011;48597;49.030;1.822;2024-02-15T08:11:12;1.15;;;0.90;;
62543;SDS011;48597;49.030;1.822;2024-02-15T08:13:46;1.23;;;0.90;;
62543;SDS011;48597;49.030;1.822;2024-02-15T08:16:19;1.27;;;0.90;;
62543;SDS011;48597;49.030;1.822;2024-02-15T08:18:47;0.93;;;0.88;;
62543;SDS011;48597;49.030;1.822;2024-02-15T08:21:13;1.00;;;0.90;;
62543;SDS011;48597;49.030;1.822;2024-02-15T08:23:39;1.38;;;0.98;;
62543;SDS011;48597;49.030;1.822;2024-02-15T08:26:05;1.30;;;0.88;;
62543;SDS011;48597;49.030;1.822;2024-02-15T08:28:30;0.85;;;0.80;;
62543;SDS011;48597;49.030;1.822;2024-02-15T08:30:56;0.90;;;0.80;;
62543;SDS011;48597;49.030;1.822;2024-02-15T08:33:24;0.95;;;0.90;;
62543;SDS011;48597;49.030;1.822;2024-02-15T08:35:53;1.13;;;0.90;;
62543;SDS011;48597;49.030;1.822;2024-02-15T08:38:20;0.90;;;0.80;;
62543;SDS011;48597;49.030;1.822;2024-02-15T08:40:46;1.23;;;0.90;;
62543;SDS011;48597;49.030;1.822;2024-02-15T08:43:12;2.83;;;1.20;;
62543;SDS011;48597;49.030;1.822;2024-02-15T08:45:38;2.08;;;1.10;;
62543;SDS011;48597;49.030;1.822;2024-02-15T08:48:04;4.95;;;1.27;;
62543;SDS011;48597;49.030;1.822;2024-02-15T08:50:30;1.55;;;1.00;;
62543;SDS011;48597;49.030;1.822;2024-02-15T08:52:55;1.20;;;1.10;;
62543;SDS011;48597;49.030;1.822;2024-02-15T08:55:21;1.75;;;1.00;;
62543;SDS011;48597;49.030;1.822;2024-02-15T08:57:51;2.47;;;1.20;;
62543;SDS011;48597;49.030;1.822;2024-02-15T09:00:17;1.58;;;1.23;;
62543;SDS011;48597;49.030;1.822;2024-02-15T09:02:43;1.27;;;1.10;;
62543;SDS011;48597;49.030;1.822;2024-02-15T09:05:09;1.48;;;1.23;;
62543;SDS011;48597;49.030;1.822;2024-02-15T09:07:35;1.30;;;1.20;;
62543;SDS011;48597;49.030;1.822;2024-02-15T09:10:04;1.60;;;1.30;;
62543;SDS011;48597;49.030;1.822;2024-02-15T09:12:32;2.33;;;1.42;;
62543;SDS011;48597;49.030;1.822;2024-02-15T09:14:57;1.52;;;1.30;;
62543;SDS011;48597;49.030;1.822;2024-02-15T09:17:23;3.10;;;1.50;;
62543;SDS011;48597;49.030;1.822;2024-02-15T09:19:48;2.03;;;1.23;;
62543;SDS011;48597;49.030;1.822;2024-02-15T09:22:14;1.67;;;1.20;;
62543;SDS011;48597;49.030;1.822;2024-02-15T09:24:40;1.52;;;1.20;;
62543;SDS011;48597;49.030;1.822;2024-02-15T09:27:07;1.77;;;1.10;;
62543;SDS011;48597;49.030;1.822;2024-02-15T09:29:32;2.17;;;1.23;;
62543;SDS011;48597;49.030;1.822;2024-02-15T09:31:58;1.50;;;1.20;;
62543;SDS011;48597;49.030;1.822;2024-02-15T09:34:27;2.05;;;1.35;;
62543;SDS011;48597;49.030;1.822;2024-02-15T09:36:52;1.20;;;1.10;;
62543;SDS011;48597;49.030;1.822;2024-02-15T09:39:17;1.88;;;1.35;;
62543;SDS011;48597;49.030;1.822;2024-02-15T09:41:43;2.05;;;1.35;;
62543;SDS011;48597;49.030;1.822;2024-02-15T09:44:08;1.58;;;1.35;;
62543;SDS011;48597;49.030;1.822;2024-02-15T09:46:35;1.50;;;1.40;;
62543;SDS011;48597;49.030;1.822;2024-02-15T09:49:01;3.13;;;1.35;;
62543;SDS011;48597;49.030;1.822;2024-02-15T09:51:28;1.85;;;1.33;;
62543;SDS011;48597;49.030;1.822;2024-02-15T09:53:58;1.20;;;1.10;;
62543;SDS011;48597;49.030;1.822;2024-02-15T09:56:26;1.58;;;1.10;;
62543;SDS011;48597;49.030;1.822;2024-02-15T09:58:53;2.25;;;1.48;;
62543;SDS011;48597;49.030;1.822;2024-02-15T10:01:22;1.90;;;1.30;;
62543;SDS011;48597;49.030;1.822;2024-02-15T10:03:50;2.35;;;1.33;;
62543;SDS011;48597;49.030;1.822;2024-02-15T10:06:16;2.25;;;1.35;;
62543;SDS011;48597;49.030;1.822;2024-02-15T10:08:43;1.85;;;1.40;;
62543;SDS011;48597;49.030;1.822;2024-02-15T10:11:09;2.30;;;1.60;;
62543;SDS011;48597;49.030;1.822;2024-02-15T10:13:36;1.92;;;1.42;;
62543;SDS011;48597;49.030;1.822;2024-02-15T10:16:18;3.20;;;1.50;;
62543;SDS011;48597;49.030;1.822;2024-02-15T10:18:47;2.10;;;1.30;;
62543;SDS011;48597;49.030;1.822;2024-02-15T10:21:28;1.75;;;1.10;;
62543;SDS011;48597;49.030;1.822;2024-02-15T10:24:07;1.40;;;1.27;;
62543;SDS011;48597;49.030;1.822;2024-02-15T10:26:34;2.08;;;1.40;;
62543;SDS011;48597;49.030;1.822;2024-02-15T10:29:10;1.75;;;1.48;;
62543;SDS011;48597;49.030;1.822;2024-02-15T10:31:37;1.48;;;1.33;;
62543;SDS011;48597;49.030;1.822;2024-02-15T10:34:06;1.67;;;1.55;;
62543;SDS011;48597;49.030;1.822;2024-02-15T10:36:36;2.50;;;1.50;;
62543;SDS011;48597;49.030;1.822;2024-02-15T10:41:43;2.72;;;1.40;;
62543;SDS011;48597;49.030;1.822;2024-02-15T10:44:12;1.85;;;1.23;;
62543;SDS011;48597;49.030;1.822;2024-02-15T10:46:41;1.65;;;1.55;;
62543;SDS011;48597;49.030;1.822;2024-02-15T10:49:07;1.90;;;1.25;;
62543;SDS011;48597;49.030;1.822;2024-02-15T10:51:33;1.63;;;1.40;;
62543;SDS011;48597;49.030;1.822;2024-02-15T10:54:04;1.80;;;1.50;;
62543;SDS011;48597;49.030;1.822;2024-02-15T10:56:37;1.95;;;1.55;;
62543;SDS011;48597;49.030;1.822;2024-02-15T10:59:19;2.28;;;1.70;;
62543;SDS011;48597;49.030;1.822;2024-02-15T11:01:49;2.97;;;1.50;;
62543;SDS011;48597;49.030;1.822;2024-02-15T11:04:20;2.90;;;1.80;;
62543;SDS011;48597;49.030;1.822;2024-02-15T11:06:51;2.20;;;1.70;;
62543;SDS011;48597;49.030;1.822;2024-02-15T11:09:20;4.68;;;1.85;;
62543;SDS011;48597;49.030;1.822;2024-02-15T11:11:47;3.30;;;2.00;;
62543;SDS011;48597;49.030;1.822;2024-02-15T11:14:31;4.10;;;1.92;;
62543;SDS011;48597;49.030;1.822;2024-02-15T11:16:58;5.32;;;2.47;;
62543;SDS011;48597;49.030;1.822;2024-02-15T11:22:00;6.93;;;2.45;;
62543;SDS011;48597;49.030;1.822;2024-02-15T11:24:29;10.35;;;4.75;;
62543;SDS011;48597;49.030;1.822;2024-02-15T11:27:05;10.68;;;4.32;;
62543;SDS011;48597;49.030;1.822;2024-02-15T11:29:48;12.30;;;4.80;;
62543;SDS011;48597;49.030;1.822;2024-02-15T11:35:04;12.07;;;4.78;;
62543;SDS011;48597;49.030;1.822;2024-02-15T11:37:49;13.80;;;5.60;;
62543;SDS011;48597;49.030;1.822;2024-02-15T11:40:59;16.55;;;5.43;;
62543;SDS011;48597;49.030;1.822;2024-02-15T11:43:44;12.48;;;5.20;;
62543;SDS011;48597;49.030;1.822;2024-02-15T11:46:15;14.43;;;5.43;;
62543;SDS011;48597;49.030;1.822;2024-02-15T11:48:45;14.43;;;6.00;;
62543;SDS011;48597;49.030;1.822;2024-02-15T11:51:24;18.50;;;6.38;;
62543;SDS011;48597;49.030;1.822;2024-02-15T11:54:02;17.70;;;5.97;;
62543;SDS011;48597;49.030;1.822;2024-02-15T11:59:08;15.45;;;5.70;;
62543;SDS011;48597;49.030;1.822;2024-02-15T12:01:37;17.58;;;5.53;;
62543;SDS011;48597;49.030;1.822;2024-02-15T12:04:22;15.90;;;5.90;;
62543;SDS011;48597;49.030;1.822;2024-02-15T12:07:06;13.07;;;5.53;;
62543;SDS011;48597;49.030;1.822;2024-02-15T12:09:50;18.38;;;6.97;;
62543;SDS011;48597;49.030;1.822;2024-02-15T12:12:50;19.58;;;5.72;;
62543;SDS011;48597;49.030;1.822;2024-02-15T12:15:37;19.38;;;6.30;;
62543;SDS011;48597;49.030;1.822;2024-02-15T12:18:21;18.55;;;6.45;;
62543;SDS011;48597;49.030;1.822;2024-02-15T12:21:07;14.13;;;5.30;;
62543;SDS011;48597;49.030;1.822;2024-02-15T12:23:35;16.60;;;5.47;;
62543;SDS011;48597;49.030;1.822;2024-02-15T12:26:02;13.38;;;4.95;;
62543;SDS011;48597;49.030;1.822;2024-02-15T12:28:29;16.90;;;5.80;;
62543;SDS011;48597;49.030;1.822;2024-02-15T12:30:55;16.10;;;5.80;;
62543;SDS011;48597;49.030;1.822;2024-02-15T12:33:22;16.25;;;6.20;;
62543;SDS011;48597;49.030;1.822;2024-02-15T12:35:47;13.65;;;5.65;;
62543;SDS011;48597;49.030;1.822;2024-02-15T12:38:13;12.05;;;5.45;;
62543;SDS011;48597;49.030;1.822;2024-02-15T12:40:41;12.15;;;5.32;;
62543;SDS011;48597;49.030;1.822;2024-02-15T12:43:07;13.93;;;6.07;;
62543;SDS011;48597;49.030;1.822;2024-02-15T12:45:40;14.77;;;5.72;;
62543;SDS011;48597;49.030;1.822;2024-02-15T12:48:07;13.30;;;5.30;;
62543;SDS011;48597;49.030;1.822;2024-02-15T12:50:34;12.18;;;4.85;;
62543;SDS011;48597;49.030;1.822;2024-02-15T12:53:00;14.55;;;5.80;;
62543;SDS011;48597;49.030;1.822;2024-02-15T12:55:29;13.52;;;5.15;;
62543;SDS011;48597;49.030;1.822;2024-02-15T12:58:05;12.55;;;4.78;;
62543;SDS011;48597;49.030;1.822;2024-02-15T13:00:34;14.90;;;5.78;;
62543;SDS011;48597;49.030;1.822;2024-02-15T13:03:07;13.65;;;5.38;;
62543;SDS011;48597;49.030;1.822;2024-02-15T13:05:35;16.13;;;6.07;;
62543;SDS011;48597;49.030;1.822;2024-02-15T13:08:04;11.88;;;5.18;;
62543;SDS011;48597;49.030;1.822;2024-02-15T13:10:38;14.90;;;5.53;;
62543;SDS011;48597;49.030;1.822;2024-02-15T13:13:04;11.32;;;5.53;;
62543;SDS011;48597;49.030;1.822;2024-02-15T13:15:30;11.65;;;4.80;;
62543;SDS011;48597;49.030;1.822;2024-02-15T13:17:59;12.63;;;5.40;;
62543;SDS011;48597;49.030;1.822;2024-02-15T13:20:25;16.05;;;5.32;;
62543;SDS011;48597;49.030;1.822;2024-02-15T13:23:01;12.82;;;5.00;;
62543;SDS011;48597;49.030;1.822;2024-02-15T13:25:33;11.45;;;4.88;;
62543;SDS011;48597;49.030;1.822;2024-02-15T13:27:58;12.20;;;5.00;;
62543;SDS011;48597;49.030;1.822;2024-02-15T13:30:23;12.27;;;4.90;;
62543;SDS011;48597;49.030;1.822;2024-02-15T13:32:52;9.98;;;4.88;;
62543;SDS011;48597;49.030;1.822;2024-02-15T13:35:19;10.27;;;4.53;;
62543;SDS011;48597;49.030;1.822;2024-02-15T13:37:51;13.93;;;5.05;;
62543;SDS011;48597;49.030;1.822;2024-02-15T13:40:18;13.32;;;5.15;;
62543;SDS011;48597;49.030;1.822;2024-02-15T13:42:51;13.50;;;4.85;;
62543;SDS011;48597;49.030;1.822;2024-02-15T13:45:21;10.20;;;4.68;;
62543;SDS011;48597;49.030;1.822;2024-02-15T13:47:48;10.32;;;4.32;;
62543;SDS011;48597;49.030;1.822;2024-02-15T13:50:15;10.73;;;4.80;;
62543;SDS011;48597;49.030;1.822;2024-02-15T13:52:41;11.70;;;4.18;;
62543;SDS011;48597;49.030;1.822;2024-02-15T13:55:14;10.90;;;4.72;;
62543;SDS011;48597;49.030;1.822;2024-02-15T13:57:42;10.73;;;5.10;;
62543;SDS011;48597;49.030;1.822;2024-02-15T14:00:11;8.50;;;4.38;;
62543;SDS011;48597;49.030;1.822;2024-02-15T14:02:50;9.50;;;4.40;;
62543;SDS011;48597;49.030;1.822;2024-02-15T14:05:16;11.10;;;4.63;;
62543;SDS011;48597;49.030;1.822;2024-02-15T14:07:46;8.32;;;4.03;;
62543;SDS011;48597;49.030;1.822;2024-02-15T14:10:13;8.55;;;3.47;;
62543;SDS011;48597;49.030;1.822;2024-02-15T14:12:38;9.70;;;4.28;;
62543;SDS011;48597;49.030;1.822;2024-02-15T14:15:04;6.63;;;3.40;;
62543;SDS011;48597;49.030;1.822;2024-02-15T14:17:30;7.82;;;3.88;;
62543;SDS011;48597;49.030;1.822;2024-02-15T14:19:56;10.00;;;4.40;;
62543;SDS011;48597;49.030;1.822;2024-02-15T14:22:22;7.13;;;3.80;;
62543;SDS011;48597;49.030;1.822;2024-02-15T14:24:49;6.47;;;3.75;;
62543;SDS011;48597;49.030;1.822;2024-02-15T14:27:14;6.43;;;3.67;;
62543;SDS011;48597;49.030;1.822;2024-02-15T14:29:40;6.95;;;3.70;;
62543;SDS011;48597;49.030;1.822;2024-02-15T14:32:25;6.68;;;3.72;;
62543;SDS011;48597;49.030;1.822;2024-02-15T14:35:09;9.07;;;4.07;;
62543;SDS011;48597;49.030;1.822;2024-02-15T14:37:35;7.35;;;3.67;;
62543;SDS011;48597;49.030;1.822;2024-02-15T14:40:01;7.93;;;3.65;;
62543;SDS011;48597;49.030;1.822;2024-02-15T14:42:27;6.85;;;3.30;;
62543;SDS011;48597;49.030;1.822;2024-02-15T14:44:52;4.93;;;2.78;;
62543;SDS011;48597;49.030;1.822;2024-02-15T14:47:18;7.03;;;3.40;;
62543;SDS011;48597;49.030;1.822;2024-02-15T14:49:43;6.85;;;3.75;;
62543;SDS011;48597;49.030;1.822;2024-02-15T14:52:09;8.10;;;3.72;;
62543;SDS011;48597;49.030;1.822;2024-02-15T14:54:34;5.30;;;3.50;;
62543;SDS011;48597;49.030;1.822;2024-02-15T14:57:01;5.53;;;3.22;;
62543;SDS011;48597;49.030;1.822;2024-02-15T14:59:26;7.53;;;3.63;;
62543;SDS011;48597;49.030;1.822;2024-02-15T15:01:52;8.57;;;3.50;;